Time;durP1;ratioP1;P1;durP2;ratioP2;P2;SDS_P1;SDS_P2;PMS_P1;PMS_P2;Temp;Humidity;BMP_temperature;BMP_pressure;BME280_temperature;BME280_humidity;BME280_pressure;Samples;Min_cycle;Max_cycle;Signal;HPM_P1;HPM_P2
2022/04/04 00:00:08;;;;;;;9.38;5.20;;;;;;;3.86;48.34;100202.03;4472127;32;33981;-73
2022/04/04 00:02:36;;;;;;;8.63;5.05;;;;;;;3.83;47.63;100200.47;4472226;32;34422;-73
2022/04/04 00:05:05;;;;;;;9.48;5.22;;;;;;;3.94;47.21;100202.06;4459145;32;34319;-73
2022/04/04 00:07:32;;;;;;;9.05;5.22;;;;;;;3.75;47.51;100202.22;4472078;32;34637;-73
2022/04/04 00:10:01;;;;;;;11.52;5.20;;;;;;;3.84;47.44;100204.88;4472289;32;33256;-73
2022/04/04 00:12:28;;;;;;;10.07;5.28;;;;;;;3.82;47.72;100204.19;4486151;32;33683;-73
2022/04/04 00:14:56;;;;;;;9.82;5.12;;;;;;;3.86;48.23;100211.03;4486092;32;34321;-73
2022/04/04 00:17:24;;;;;;;10.80;5.40;;;;;;;3.58;49.20;100207.47;4471929;32;33830;-73
2022/04/04 00:19:51;;;;;;;20.62;13.18;;;;;;;3.75;49.11;100199.53;4446262;32;32124;-73
2022/04/04 00:22:19;;;;;;;44.95;29.80;;;;;;;3.82;48.95;100203.34;4446215;32;32270;-73
2022/04/04 00:24:47;;;;;;;20.20;12.25;;;;;;;3.70;48.92;100209.97;4459274;32;34391;-74
2022/04/04 00:27:15;;;;;;;19.30;11.10;;;;;;;3.70;49.16;100207.25;4486057;32;34569;-73
2022/04/04 00:29:42;;;;;;;24.42;12.13;;;;;;;3.86;48.67;100207.44;4471811;32;31874;-73
2022/04/04 00:32:11;;;;;;;10.60;5.85;;;;;;;3.66;48.40;100206.72;4471850;32;33686;-73
2022/04/04 00:34:40;;;;;;;9.25;5.43;;;;;;;3.64;47.24;100204.16;4472244;32;35045;-73
2022/04/04 00:37:07;;;;;;;10.30;5.35;;;;;;;3.71;46.66;100198.97;4485827;32;34611;-73
2022/04/04 00:39:35;;;;;;;8.13;4.90;;;;;;;3.76;46.55;100196.66;4485554;32;33190;-73
2022/04/04 00:42:03;;;;;;;10.55;5.15;;;;;;;3.76;46.86;100201.22;4459198;32;33792;-73
2022/04/04 00:44:30;;;;;;;9.43;5.30;;;;;;;3.77;47.30;100214.66;4471764;32;32923;-73
2022/04/04 00:47:01;;;;;;;10.68;5.30;;;;;;;3.77;47.29;100209.22;4459101;32;33121;-73
2022/04/04 00:49:29;;;;;;;9.60;4.62;;;;;;;3.50;47.53;100207.38;4485956;32;33200;-73
2022/04/04 00:51:56;;;;;;;8.88;5.28;;;;;;;3.60;46.96;100210.88;4445695;32;32287;-73
2022/04/04 00:54:24;;;;;;;10.98;5.25;;;;;;;3.53;46.73;100204.34;4458835;32;33808;-73
2022/04/04 00:56:52;;;;;;;10.35;4.78;;;;;;;3.39;46.84;100204.00;4471440;32;34615;-73
2022/04/04 00:59:21;;;;;;;9.18;5.15;;;;;;;3.54;46.38;100192.50;4472002;32;34143;-73
2022/04/04 01:01:49;;;;;;;10.38;4.90;;;;;;;3.31;46.86;100204.75;4458372;32;32414;-74
2022/04/04 01:04:16;;;;;;;9.63;4.90;;;;;;;3.39;46.60;100195.84;4471574;32;34935;-73
2022/04/04 01:06:44;;;;;;;8.85;4.80;;;;;;;3.25;46.90;100198.06;4485484;32;34718;-74
2022/04/04 01:09:14;;;;;;;11.48;5.70;;;;;;;3.22;47.28;100209.25;4471640;32;34335;-73
2022/04/04 01:12:07;;;;;;;10.15;5.28;;;;;;;3.28;47.19;100199.63;4458703;32;32376;-73
2022/04/04 01:14:46;;;;;;;10.40;5.28;;;;;;;3.24;47.62;100200.97;4458629;32;35262;-73
2022/04/04 01:17:19;;;;;;;11.40;5.85;;;;;;;3.38;47.41;100200.44;4458340;32;32430;-74
2022/04/04 01:19:47;;;;;;;12.80;5.50;;;;;;;3.39;48.19;100194.00;4458270;32;31922;-74
2022/04/04 01:22:15;;;;;;;9.10;5.50;;;;;;;3.45;48.81;100201.53;4471153;32;32318;-73
2022/04/04 01:24:43;;;;;;;9.88;5.55;;;;;;;3.48;48.79;100217.53;4471296;32;34501;-73
2022/04/04 01:27:14;;;;;;;8.93;5.47;;;;;;;3.57;48.72;100208.47;4471284;32;33963;-73
2022/04/04 01:29:42;;;;;;;9.50;5.15;;;;;;;3.53;49.49;100208.94;4471463;32;32913;-73
2022/04/04 01:32:12;;;;;;;11.10;5.50;;;;;;;3.56;49.87;100212.19;4458440;32;33597;-73
2022/04/04 01:34:42;;;;;;;11.25;5.87;;;;;;;3.59;49.66;100214.59;4485224;32;34541;-73
2022/04/04 01:37:10;;;;;;;11.90;5.40;;;;;;;3.55;49.99;100220.47;4471095;32;33950;-73
2022/04/04 01:39:37;;;;;;;11.30;5.80;;;;;;;3.61;49.77;100218.03;4485447;32;34032;-73
2022/04/04 01:42:08;;;;;;;9.52;5.47;;;;;;;3.56;49.90;100214.91;4471123;32;33181;-73
2022/04/04 01:44:36;;;;;;;11.38;5.28;;;;;;;3.44;50.51;100213.41;4471310;32;34395;-73
2022/04/04 01:47:05;;;;;;;10.32;5.62;;;;;;;3.53;50.68;100217.06;4485138;32;34924;-73
2022/04/04 01:49:32;;;;;;;14.27;8.85;;;;;;;3.34;51.37;100217.16;4470880;32;31811;-73
2022/04/04 01:52:00;;;;;;;13.53;7.93;;;;;;;3.38;51.20;100213.16;4458965;32;34034;-73
2022/04/04 01:54:29;;;;;;;13.55;6.78;;;;;;;3.51;50.85;100213.66;4460359;32;35498;-73
2022/04/04 01:57:07;;;;;;;11.35;6.60;;;;;;;3.41;51.07;100216.41;4486814;32;34609;-73
2022/04/04 01:59:38;;;;;;;12.40;5.85;;;;;;;3.47;50.81;100214.97;4472847;32;33642;-73
2022/04/04 02:02:08;;;;;;;12.50;7.15;;;;;;;3.20;50.85;100213.09;4472675;32;32217;-73
2022/04/04 02:04:41;;;;;;;11.93;6.18;;;;;;;3.06;49.93;100211.72;4472668;32;32667;-73
2022/04/04 02:07:11;;;;;;;13.90;7.18;;;;;;;3.24;49.33;100215.38;4472736;32;33875;-73
2022/04/04 02:09:39;;;;;;;15.02;7.22;;;;;;;3.36;49.53;100216.00;4472613;32;32912;-73
2022/04/04 02:12:09;;;;;;;12.40;7.25;;;;;;;3.53;49.53;100215.22;4486905;32;33713;-73
2022/04/04 02:14:37;;;;;;;13.23;7.05;;;;;;;3.29;50.43;100209.47;4459629;32;33276;-73
2022/04/04 02:17:06;;;;;;;13.93;6.60;;;;;;;3.40;50.44;100209.28;4472776;32;33885;-73
2022/04/04 02:19:35;;;;;;;11.60;6.62;;;;;;;3.25;50.87;100198.06;4459950;32;33316;-73
2022/04/04 02:22:03;;;;;;;9.73;5.57;;;;;;;3.14;50.71;100206.41;4472838;32;33549;-73
2022/04/04 02:24:31;;;;;;;11.35;6.35;;;;;;;3.07;50.04;100202.59;4472561;32;35196;-73
2022/04/04 02:26:58;;;;;;;12.10;5.62;;;;;;;3.14;50.07;100201.00;4472746;32;34750;-73
2022/04/04 02:29:26;;;;;;;12.52;6.18;;;;;;;3.23;50.33;100207.38;4446875;32;31952;-73
2022/04/04 02:31:54;;;;;;;10.48;5.03;;;;;;;3.19;50.93;100204.13;4459793;32;34580;-73
2022/04/04 02:34:21;;;;;;;9.10;5.50;;;;;;;3.11;51.11;100205.88;4459806;32;34419;-73
2022/04/04 02:36:48;;;;;;;9.48;5.65;;;;;;;3.11;50.58;100209.44;4459626;32;33463;-74
2022/04/04 02:39:16;;;;;;;8.45;5.15;;;;;;;3.16;50.63;100206.28;4446791;32;31810;-74
2022/04/04 02:41:46;;;;;;;9.95;5.75;;;;;;;3.18;50.96;100213.25;4459525;32;32294;-74
2022/04/04 02:44:13;;;;;;;8.07;5.20;;;;;;;2.91;51.59;100215.91;4472511;32;34420;-74
2022/04/04 02:46:41;;;;;;;10.25;5.75;;;;;;;3.07;51.17;100220.72;4486944;32;34150;-74
2022/04/04 02:49:11;;;;;;;11.12;5.78;;;;;;;2.54;52.12;100213.16;4459778;32;32206;-74
2022/04/04 02:51:41;;;;;;;11.30;5.85;;;;;;;2.94;51.41;100215.62;4486691;32;33636;-74
2022/04/04 02:54:09;;;;;;;10.73;5.65;;;;;;;3.05;51.07;100211.88;4472282;32;34248;-74
2022/04/04 02:56:41;;;;;;;13.80;6.10;;;;;;;3.03;50.98;100214.72;4459128;32;32303;-74
2022/04/04 02:59:09;;;;;;;11.67;6.07;;;;;;;2.94;51.18;100219.19;4486482;32;33598;-74
2022/04/04 03:01:37;;;;;;;9.52;4.95;;;;;;;2.75;51.53;100218.38;4486742;32;34443;-74
2022/04/04 03:04:05;;;;;;;12.20;5.55;;;;;;;2.90;51.16;100220.47;4472229;32;34392;-74
2022/04/04 03:06:32;;;;;;;10.13;5.80;;;;;;;2.96;51.13;100225.31;4472188;32;33865;-74
2022/04/04 03:09:02;;;;;;;11.38;6.10;;;;;;;2.80;51.86;100224.22;4472358;32;33922;-74
2022/04/04 03:11:29;;;;;;;12.63;5.60;;;;;;;2.85;51.53;100228.19;4486352;32;34336;-74
2022/04/04 03:13:57;;;;;;;11.93;6.07;;;;;;;2.64;52.39;100222.09;4459186;32;32889;-74
2022/04/04 03:16:25;;;;;;;12.77;5.97;;;;;;;2.75;51.90;100224.66;4459266;32;32734;-74
2022/04/04 03:18:55;;;;;;;13.98;6.40;;;;;;;2.73;52.11;100228.50;4459283;32;31866;-74
2022/04/04 03:21:27;;;;;;;13.73;6.80;;;;;;;2.75;51.92;100227.34;4472611;32;33338;-73
2022/04/04 03:23:59;;;;;;;13.30;7.15;;;;;;;2.73;51.86;100229.34;4472496;32;34420;-73
2022/04/04 03:26:31;;;;;;;13.67;7.40;;;;;;;2.73;51.81;100226.66;4472053;32;32623;-73
2022/04/04 03:28:59;;;;;;;14.02;7.05;;;;;;;2.59;52.15;100227.97;4472863;32;33992;-73
2022/04/04 03:31:29;;;;;;;14.38;7.12;;;;;;;2.64;52.08;100222.94;4459376;32;33658;-73
2022/04/04 03:33:59;;;;;;;14.82;7.93;;;;;;;2.75;51.91;100223.78;4471847;32;34321;-73
2022/04/04 03:36:27;;;;;;;21.33;9.00;;;;;;;2.62;52.08;100224.09;4472366;32;33831;-74
2022/04/04 03:38:54;;;;;;;19.65;9.73;;;;;;;2.58;52.10;100233.53;4486170;32;33679;-74
2022/04/04 03:41:22;;;;;;;21.95;9.60;;;;;;;2.59;51.90;100235.25;4472231;32;34445;-73
2022/04/04 03:43:50;;;;;;;21.60;9.70;;;;;;;2.56;52.16;100233.69;4486079;32;35006;-74
2022/04/04 03:46:18;;;;;;;27.42;10.80;;;;;;;2.75;51.59;100238.19;4486144;32;34941;-74
2022/04/04 03:48:45;;;;;;;25.45;11.77;;;;;;;2.60;51.83;100235.06;4472438;32;33334;-74
2022/04/04 03:51:13;;;;;;;26.33;13.20;;;;;;;2.48;52.21;100244.37;4458865;32;33682;-74
2022/04/04 03:53:41;;;;;;;27.52;13.52;;;;;;;2.38;52.25;100243.53;4486166;32;34251;-74
2022/04/04 03:56:08;;;;;;;31.70;12.05;;;;;;;2.46;52.04;100248.25;4471603;32;32366;-74
2022/04/04 03:58:36;;;;;;;25.23;10.98;;;;;;;2.42;51.98;100244.09;4472012;32;33549;-73
2022/04/04 04:01:03;;;;;;;24.40;11.50;;;;;;;2.41;51.63;100245.97;4471920;32;33560;-74
2022/04/04 04:03:31;;;;;;;18.73;9.07;;;;;;;2.45;51.73;100247.37;4472206;32;35154;-74
2022/04/04 04:06:11;;;;;;;18.83;8.38;;;;;;;2.04;52.69;100256.63;4471940;32;33801;-74
2022/04/04 04:08:46;;;;;;;20.17;9.60;;;;;;;2.17;52.45;100249.09;4473592;32;33359;-74
2022/04/04 04:11:16;;;;;;;15.83;7.50;;;;;;;2.34;51.79;100252.09;4486037;32;34561;-74
2022/04/04 04:13:45;;;;;;;13.75;7.12;;;;;;;2.22;51.75;100254.94;4458567;32;33918;-74
2022/04/04 04:16:13;;;;;;;13.40;7.33;;;;;;;2.23;51.71;100253.06;4471413;32;34002;-74
2022/04/04 04:18:41;;;;;;;12.50;6.82;;;;;;;2.22;51.70;100257.63;4458885;32;31646;-74
2022/04/04 04:21:10;;;;;;;15.98;7.10;;;;;;;2.20;51.84;100256.94;4445648;32;32188;-76
2022/04/04 04:23:42;;;;;;;13.77;7.10;;;;;;;1.99;52.69;100250.78;4459603;32;34592;-74
2022/04/04 04:26:15;;;;;;;12.77;6.70;;;;;;;2.24;52.05;100252.94;4471942;32;33902;-74
2022/04/04 04:28:45;;;;;;;15.07;6.97;;;;;;;2.34;51.59;100243.97;4486114;32;33412;-74
2022/04/04 04:31:16;;;;;;;14.97;6.77;;;;;;;2.27;51.89;100255.38;4471504;32;33918;-74
2022/04/04 04:33:44;;;;;;;13.82;7.37;;;;;;;2.24;52.19;100242.09;4471947;32;34490;-74
2022/04/04 04:36:12;;;;;;;14.45;7.57;;;;;;;2.09;52.74;100251.63;4471270;32;33922;-74
2022/04/04 04:38:40;;;;;;;13.90;7.07;;;;;;;2.24;52.42;100243.97;4485471;32;33446;-74
2022/04/04 04:41:07;;;;;;;12.17;6.87;;;;;;;2.24;52.16;100257.50;4471750;32;33767;-74
2022/04/04 04:43:35;;;;;;;12.37;6.43;;;;;;;2.41;61.52;100255.94;4471406;32;33996;-73
2022/04/04 04:46:03;;;;;;;13.62;6.28;;;;;;;2.40;56.32;100249.66;4458989;32;33843;-74
2022/04/04 04:48:31;;;;;;;9.25;5.57;;;;;;;2.41;54.41;100255.94;4458638;32;31798;-74
2022/04/04 04:50:58;;;;;;;12.70;6.45;;;;;;;2.38;53.19;100250.81;4485688;32;33740;-74
2022/04/04 04:53:26;;;;;;;12.45;6.05;;;;;;;2.36;52.83;100256.38;4458615;32;33927;-74
2022/04/04 04:55:59;;;;;;;17.58;8.25;;;;;;;2.43;52.65;100262.94;4471675;32;32381;-74
2022/04/04 04:58:29;;;;;;;16.95;8.10;;;;;;;2.26;53.12;100253.66;4471969;32;34197;-74
2022/04/04 05:00:59;;;;;;;13.57;8.43;;;;;;;2.12;53.58;100262.19;4471989;32;33810;-75
2022/04/04 05:03:30;;;;;;;14.57;7.55;;;;;;;2.14;53.64;100265.62;4459333;32;34267;-76
2022/04/04 05:06:00;;;;;;;16.10;7.10;;;;;;;2.34;53.26;100271.03;4471684;32;33981;-74
2022/04/04 05:08:27;;;;;;;15.60;6.82;;;;;;;2.53;52.95;100260.22;4471780;32;33987;-74
2022/04/04 05:10:55;;;;;;;12.90;6.83;;;;;;;2.55;59.54;100264.50;4491210;31;34380;-73
2022/04/04 05:13:22;;;;;;;14.43;6.30;;;;;;;2.86;57.17;100267.00;4486952;31;34215;-73
2022/04/04 05:15:51;;;;;;;13.77;6.80;;;;;;;2.88;54.49;100270.41;4472840;32;33884;-74
2022/04/04 05:18:18;;;;;;;12.07;6.62;;;;;;;2.79;53.02;100269.44;4484620;32;33476;-73
2022/04/04 05:20:46;;;;;;;11.02;6.32;;;;;;;2.82;52.75;100269.12;4471217;32;33624;-75
2022/04/04 05:23:14;;;;;;;12.85;7.35;;;;;;;2.95;51.99;100275.13;4470325;32;34347;-75
2022/04/04 05:25:42;;;;;;;16.15;7.03;;;;;;;3.07;51.49;100266.81;4468585;32;33736;-75
2022/04/04 05:28:10;;;;;;;12.55;6.93;;;;;;;2.92;51.27;100278.13;4455778;32;33212;-74
2022/04/04 05:30:41;;;;;;;13.85;7.07;;;;;;;3.22;50.81;100271.63;4456750;32;33347;-74
2022/04/04 05:33:09;;;;;;;13.82;8.48;;;;;;;3.34;50.71;100277.69;4444538;32;32892;-75
2022/04/04 05:35:37;;;;;;;14.00;7.50;;;;;;;3.49;50.64;100270.78;4469460;32;34754;-75
2022/04/04 05:38:04;;;;;;;17.87;8.93;;;;;;;3.61;50.39;100275.00;4469267;32;33329;-75
2022/04/04 05:40:32;;;;;;;15.07;8.10;;;;;;;3.66;50.59;100274.56;4484605;32;33815;-73
2022/04/04 05:43:00;;;;;;;12.05;7.53;;;;;;;3.91;50.20;100278.41;4470734;32;34617;-74
2022/04/04 05:45:30;;;;;;;11.10;7.00;;;;;;;4.19;49.79;100277.37;4471019;32;34442;-75
2022/04/04 05:47:57;;;;;;;14.80;7.50;;;;;;;4.61;49.29;100279.47;4470606;32;31828;-74
2022/04/04 05:50:28;;;;;;;12.88;7.35;;;;;;;4.81;48.77;100283.72;4470685;32;33864;-74
2022/04/04 05:52:56;;;;;;;15.90;6.78;;;;;;;4.45;47.51;100284.78;4457879;32;33541;-74
2022/04/04 05:55:23;;;;;;;13.50;7.18;;;;;;;4.60;46.42;100294.91;4457763;32;33391;-74
2022/04/04 05:57:51;;;;;;;13.73;7.43;;;;;;;4.90;46.69;100287.34;4470590;32;33665;-74
2022/04/04 06:00:18;;;;;;;11.98;7.28;;;;;;;5.08;47.41;100277.31;4457429;32;32286;-74
2022/04/04 06:02:47;;;;;;;13.85;7.35;;;;;;;5.09;47.52;100280.87;4485087;32;34330;-74
2022/04/04 06:05:15;;;;;;;13.88;7.70;;;;;;;5.41;46.98;100278.34;4457695;32;33488;-74
2022/04/04 06:07:45;;;;;;;15.07;8.27;;;;;;;5.67;46.19;100285.63;4458498;32;33653;-74
2022/04/04 06:10:15;;;;;;;12.50;7.22;;;;;;;5.66;45.11;100278.47;4470646;32;33655;-74
2022/04/04 06:12:44;;;;;;;13.18;8.00;;;;;;;5.74;44.95;100287.53;4457989;32;32667;-74
2022/04/04 06:15:12;;;;;;;14.93;7.93;;;;;;;6.02;43.99;100285.44;4457749;32;33973;-74
2022/04/04 06:17:40;;;;;;;21.23;9.90;;;;;;;6.19;43.66;100292.66;4470746;32;33253;-74
2022/04/04 06:20:08;;;;;;;18.73;11.18;;;;;;;6.25;42.74;100299.31;4470431;32;34530;-74
2022/04/04 06:22:37;;;;;;;20.48;11.55;;;;;;;6.85;43.47;100290.88;4470535;32;34279;-74
2022/04/04 06:25:07;;;;;;;16.48;10.20;;;;;;;7.01;42.65;100295.47;4470156;32;33579;-74
2022/04/04 06:27:36;;;;;;;16.58;8.32;;;;;;;7.40;42.06;100301.87;4470537;32;33513;-73
2022/04/04 06:30:04;;;;;;;15.13;8.63;;;;;;;7.56;38.69;100293.66;4457395;32;33120;-74
2022/04/04 06:32:33;;;;;;;20.33;10.50;;;;;;;7.70;39.30;100291.22;4470156;32;34476;-74
2022/04/04 06:35:00;;;;;;;18.27;10.30;;;;;;;7.99;40.07;100296.06;4470338;32;34690;-74
2022/04/04 06:37:28;;;;;;;13.80;8.02;;;;;;;8.25;38.86;100297.47;4457919;32;33026;-74
2022/04/04 06:39:58;;;;;;;18.98;8.05;;;;;;;8.53;38.51;100299.72;4460226;32;34640;-74
2022/04/04 06:42:28;;;;;;;19.85;8.10;;;;;;;8.76;37.16;100295.09;4472575;32;34512;-74
2022/04/04 06:44:59;;;;;;;12.20;6.00;;;;;;;9.16;37.75;100304.00;4472472;32;34771;-74
2022/04/04 06:47:27;;;;;;;14.35;6.12;;;;;;;8.96;34.83;100297.34;4486620;32;33556;-74
2022/04/04 06:49:57;;;;;;;16.20;6.80;;;;;;;8.73;35.05;100292.72;4486516;32;33863;-74
2022/04/04 06:52:27;;;;;;;12.50;6.03;;;;;;;8.56;35.83;100305.66;4486519;32;34473;-74
2022/04/04 06:54:56;;;;;;;12.43;6.80;;;;;;;9.26;36.16;100299.13;4471604;32;33726;-74
2022/04/04 06:57:24;;;;;;;15.48;7.47;;;;;;;9.31;35.84;100299.41;4471993;31;33454;-73
2022/04/04 06:59:51;;;;;;;30.62;15.85;;;;;;;9.37;34.90;100300.56;4501723;31;33986;-74
2022/04/04 07:02:19;;;;;;;16.52;7.03;;;;;;;9.50;35.66;100301.63;4487764;31;34295;-74
2022/04/04 07:04:47;;;;;;;11.70;5.90;;;;;;;9.38;34.37;100303.09;4474807;31;32466;-74
2022/04/04 07:07:21;;;;;;;9.80;5.62;;;;;;;9.58;34.40;100303.44;4488235;31;33189;-74
2022/04/04 07:09:49;;;;;;;12.02;6.05;;;;;;;9.24;35.24;100298.44;4474965;31;32179;-74
2022/04/04 07:12:16;;;;;;;11.73;5.75;;;;;;;9.04;33.41;100302.75;4502095;31;35332;-73
2022/04/04 07:14:45;;;;;;;9.75;5.60;;;;;;;9.11;33.36;100309.19;4488197;31;34584;-73
2022/04/04 07:17:19;;;;;;;14.25;6.50;;;;;;;9.00;33.21;100302.28;4502155;31;33371;-74
2022/04/04 07:19:47;;;;;;;9.02;5.68;;;;;;;9.65;34.16;100303.53;4475220;31;33823;-74
2022/04/04 07:22:16;;;;;;;12.73;5.43;;;;;;;10.12;32.69;100295.75;4474977;31;34383;-74
2022/04/04 07:27:48;;;;;;;10.80;6.90;;;;;;;9.14;32.81;100292.38;4498671;31;33931;-75
2022/04/04 07:30:17;;;;;;;13.40;7.00;;;;;;;9.55;33.12;100306.53;4487816;31;33616;-75
2022/04/04 07:32:50;;;;;;;11.07;5.85;;;;;;;9.94;32.63;100300.75;4488208;31;34336;-74
2022/04/04 07:35:19;;;;;;;11.73;6.15;;;;;;;10.01;32.19;100296.22;4487865;31;33774;-75
2022/04/04 07:37:49;;;;;;;12.02;6.85;;;;;;;10.45;33.07;100301.66;4487799;31;33890;-74
2022/04/04 07:40:18;;;;;;;9.15;5.35;;;;;;;10.79;30.94;100294.63;4487595;31;33909;-74
2022/04/04 07:42:46;;;;;;;8.38;5.03;;;;;;;11.03;30.50;100297.00;4488105;31;35148;-75
2022/04/04 07:45:16;;;;;;;9.07;5.50;;;;;;;10.99;30.15;100294.84;4487469;31;32467;-76
2022/04/04 07:47:44;;;;;;;9.85;5.60;;;;;;;11.12;29.83;100290.28;4487882;31;33200;-75
2022/04/04 07:50:13;;;;;;;7.65;5.07;;;;;;;11.68;31.05;100294.97;4486412;31;34462;-74
2022/04/04 07:52:41;;;;;;;9.30;5.53;;;;;;;11.76;30.30;100290.12;4501720;31;34426;-75
2022/04/04 07:55:09;;;;;;;21.50;11.63;;;;;;;11.83;29.59;100284.69;4487281;31;34039;-75
2022/04/04 07:57:37;;;;;;;12.00;7.93;;;;;;;11.61;29.29;100288.56;4487147;31;34206;-75
2022/04/04 08:00:07;;;;;;;10.32;6.20;;;;;;;11.59;30.28;100286.00;4461337;31;32312;-75
2022/04/04 08:02:35;;;;;;;9.15;4.90;;;;;;;11.63;28.44;100283.72;4487208;31;34361;-74
2022/04/04 08:05:04;;;;;;;12.77;5.68;;;;;;;12.11;28.09;100279.97;4486161;31;34657;-74
2022/04/04 08:07:31;;;;;;;6.40;4.20;;;;;;;12.27;33.13;100286.19;4485760;31;32119;-75
2022/04/04 08:09:59;;;;;;;8.15;4.85;;;;;;;11.71;26.54;100289.88;4473383;31;33994;-75
2022/04/04 08:12:28;;;;;;;8.93;4.62;;;;;;;12.03;27.45;100276.56;4473645;31;34271;-75
2022/04/04 08:14:56;;;;;;;6.93;4.28;;;;;;;12.27;28.33;100277.94;4486652;31;34004;-75
2022/04/04 08:17:24;;;;;;;9.63;4.97;;;;;;;12.04;25.97;100279.09;4474121;31;31914;-74
2022/04/04 08:19:52;;;;;;;6.90;3.83;;;;;;;12.36;27.92;100272.00;4501263;31;34540;-75
2022/04/04 08:22:20;;;;;;;7.95;4.60;;;;;;;12.92;26.95;100273.66;4473509;31;33954;-74
2022/04/04 08:24:48;;;;;;;8.18;4.68;;;;;;;12.44;27.08;100271.84;4476839;32;34768;-74
2022/04/04 08:27:15;;;;;;;7.20;4.15;;;;;;;11.75;27.42;100279.31;4492086;31;33443;-75
2022/04/04 08:29:43;;;;;;;7.30;3.35;;;;;;;11.99;27.31;100280.75;4486685;31;33706;-75
2022/04/04 08:32:13;;;;;;;8.50;4.80;;;;;;;11.84;27.50;100272.62;4486951;31;34504;-74
2022/04/04 08:34:41;;;;;;;6.80;3.80;;;;;;;12.03;26.63;100271.06;4486503;31;34017;-74
2022/04/04 08:37:08;;;;;;;8.20;4.07;;;;;;;12.05;26.82;100264.28;4501261;31;33408;-75
2022/04/04 08:39:36;;;;;;;8.63;4.20;;;;;;;11.49;28.04;100269.88;4501209;31;34526;-74
2022/04/04 08:42:03;;;;;;;8.27;3.80;;;;;;;11.80;27.19;100268.59;4486777;31;34356;-74
2022/04/04 08:44:32;;;;;;;6.43;3.95;;;;;;;11.71;27.87;100261.53;4500849;31;34720;-74
2022/04/04 08:47:01;;;;;;;7.90;3.70;;;;;;;12.08;29.36;100257.53;4486613;31;31794;-75
2022/04/04 08:49:34;;;;;;;10.18;4.62;;;;;;;11.67;26.31;100249.25;4487541;31;33251;-75
2022/04/04 08:52:02;;;;;;;7.43;4.30;;;;;;;11.88;26.71;100262.94;4501107;31;35256;-75
2022/04/04 08:54:29;;;;;;;8.00;4.65;;;;;;;11.94;27.39;100255.75;4486627;31;34225;-74
2022/04/04 08:56:57;;;;;;;8.85;4.68;;;;;;;12.46;27.53;100244.09;4500777;31;33970;-75
2022/04/04 08:59:24;;;;;;;8.60;5.20;;;;;;;12.01;28.57;100230.00;4486566;31;34259;-75
2022/04/04 09:01:53;;;;;;;7.75;4.82;;;;;;;12.54;28.66;100241.16;4473225;31;33747;-75
2022/04/04 09:04:22;;;;;;;7.80;5.35;;;;;;;12.70;29.36;100237.16;4473557;31;34536;-74
2022/04/04 09:06:51;;;;;;;8.77;5.28;;;;;;;13.05;28.22;100232.31;4473726;31;31878;-75
2022/04/04 09:09:19;;;;;;;19.98;10.38;;;;;;;12.98;28.87;100239.75;4500863;31;33475;-75
2022/04/04 09:12:05;;;;;;;13.57;7.93;;;;;;;12.17;29.60;100229.63;4500535;31;35195;-75
2022/04/04 09:14:48;;;;;;;9.27;5.05;;;;;;;13.07;28.04;100216.41;4486776;31;33955;-75
2022/04/04 09:17:18;;;;;;;8.95;5.30;;;;;;;13.39;27.54;100218.31;4472179;31;33150;-75
2022/04/04 09:19:45;;;;;;;8.18;4.75;;;;;;;12.90;26.85;100221.50;4473377;31;32742;-75
2022/04/04 09:22:18;;;;;;;8.90;4.40;;;;;;;12.15;26.94;100217.13;4486555;31;34555;-74
2022/04/04 09:24:57;;;;;;;18.87;9.43;;;;;;;12.58;27.54;100208.53;4473430;31;33398;-74
2022/04/04 09:27:32;;;;;;;10.20;5.70;;;;;;;12.40;26.93;100204.47;4459731;32;33585;-75
2022/04/04 09:30:03;;;;;;;9.77;4.53;;;;;;;11.51;27.62;100207.28;4457818;32;32382;-75
2022/04/04 09:32:42;;;;;;;25.15;16.75;;;;;;;10.99;28.37;100207.78;4457583;32;32948;-75
2022/04/04 09:35:13;;;;;;;8.98;5.32;;;;;;;11.37;28.21;100205.50;4470498;32;33995;-75
2022/04/04 09:37:46;;;;;;;6.95;4.22;;;;;;;11.40;27.32;100202.38;4457522;32;31797;-74
2022/04/04 09:40:16;;;;;;;10.07;5.32;;;;;;;11.84;27.50;100192.87;4457551;32;33203;-75
2022/04/04 09:42:59;;;;;;;9.43;4.40;;;;;;;11.61;28.23;100200.59;4470466;32;34408;-74
2022/04/04 09:45:28;;;;;;;7.12;3.90;;;;;;;10.92;27.95;100190.41;4470683;32;33873;-74
2022/04/04 09:47:57;;;;;;;7.62;4.45;;;;;;;11.03;28.29;100181.62;4470579;32;33325;-71
2022/04/04 09:50:30;;;;;;;7.72;4.07;;;;;;;10.92;28.57;100184.91;4485087;32;34483;-73
2022/04/04 09:53:02;;;;;;;8.15;3.97;;;;;;;11.38;28.24;100173.38;4473919;32;35134;-75
2022/04/04 09:55:35;;;;;;;8.70;4.45;;;;;;;12.04;27.59;100176.47;4483240;32;33239;-75
2022/04/04 09:58:06;;;;;;;6.43;3.35;;;;;;;11.45;26.95;100155.87;4483050;32;32922;-75
2022/04/04 10:00:38;;;;;;;6.28;3.45;;;;;;;11.52;27.03;100162.28;4483351;32;33544;-75
2022/04/04 10:03:14;;;;;;;8.95;4.47;;;;;;;11.89;27.25;100165.63;4470497;32;35186;-74
2022/04/04 10:05:44;;;;;;;7.60;3.40;;;;;;;11.97;26.69;100159.09;4483493;32;34615;-75
2022/04/04 10:08:17;;;;;;;8.07;4.30;;;;;;;11.88;26.40;100155.66;4470520;32;34205;-75
2022/04/04 10:10:44;;;;;;;6.40;3.75;;;;;;;11.86;27.27;100160.53;4483331;32;34651;-75
2022/04/04 10:13:13;;;;;;;6.75;4.15;;;;;;;12.28;26.42;100153.88;4485179;32;34999;-75
2022/04/04 10:15:41;;;;;;;6.57;3.80;;;;;;;11.57;27.78;100155.31;4472270;32;35188;-75
2022/04/04 10:18:09;;;;;;;7.43;3.90;;;;;;;11.26;28.58;100145.63;4485192;32;33453;-74
2022/04/04 10:20:37;;;;;;;11.00;5.32;;;;;;;11.95;29.14;100144.69;4472220;32;33988;-74
2022/04/04 10:23:06;;;;;;;6.40;4.05;;;;;;;11.88;28.13;100144.66;4471941;32;32845;-75
2022/04/04 10:25:34;;;;;;;7.47;4.30;;;;;;;12.09;27.77;100143.69;4485052;32;33859;-76
2022/04/04 10:28:02;;;;;;;8.98;4.10;;;;;;;11.98;27.13;100142.37;4472214;32;34049;-75
2022/04/04 10:30:34;;;;;;;10.93;5.40;;;;;;;12.65;26.17;100127.66;4484951;32;33768;-74
2022/04/04 10:33:03;;;;;;;8.20;5.10;;;;;;;12.39;26.42;100116.62;4485372;32;34566;-74
2022/04/04 10:35:32;;;;;;;7.50;4.22;;;;;;;12.52;29.67;100116.62;4485337;32;33835;-75
2022/04/04 10:38:04;;;;;;;8.23;4.05;;;;;;;11.61;29.10;100127.22;4485594;32;33254;-74
2022/04/04 10:40:33;;;;;;;7.78;3.95;;;;;;;12.32;27.75;100116.62;4485095;32;33645;-75
2022/04/04 10:43:13;;;;;;;8.93;3.87;;;;;;;12.75;29.88;100113.44;4486446;32;34389;-75
2022/04/04 10:46:02;;;;;;;6.68;3.42;;;;;;;12.41;28.29;100109.00;4486491;32;34083;-75
2022/04/04 10:48:32;;;;;;;8.15;4.00;;;;;;;11.99;28.25;100115.72;4485385;32;31601;-75
2022/04/04 10:51:15;;;;;;;7.15;3.62;;;;;;;11.85;28.56;100109.31;4485541;32;34482;-74
2022/04/04 10:53:44;;;;;;;8.95;4.07;;;;;;;11.65;28.15;100111.16;4499734;31;34516;-75
2022/04/04 10:56:18;;;;;;;6.82;3.28;;;;;;;10.84;29.28;100095.31;4474986;31;32209;-76
2022/04/04 10:58:46;;;;;;;6.12;3.33;;;;;;;10.61;29.59;100113.06;4487998;31;33241;-76
2022/04/04 11:01:15;;;;;;;5.72;3.40;;;;;;;10.55;28.89;100099.09;4487917;31;34303;-75
2022/04/04 11:03:52;;;;;;;8.23;4.28;;;;;;;10.10;29.80;100105.84;4488171;31;35295;-76
2022/04/04 11:09:31;;;;;;;8.32;4.15;;;;;;;10.17;30.02;100097.69;4476943;31;31885;-75
2022/04/04 11:12:00;;;;;;;6.57;3.95;;;;;;;10.23;29.64;100097.78;4475590;31;33248;-75
2022/04/04 11:14:27;;;;;;;7.60;3.92;;;;;;;10.25;29.93;100092.09;4501824;31;34432;-75
2022/04/04 11:20:00;;;;;;;8.10;4.15;;;;;;;9.78;32.11;100089.88;4487626;31;31844;-75
2022/04/04 11:22:33;;;;;;;8.32;4.62;;;;;;;9.86;32.96;100087.03;4488040;31;34415;-74
2022/04/04 11:25:05;;;;;;;11.18;5.40;;;;;;;9.71;33.87;100089.00;4502047;31;34377;-74
2022/04/04 11:27:39;;;;;;;8.23;5.05;;;;;;;9.47;35.71;100085.56;4486896;31;34078;-74
2022/04/04 11:30:16;;;;;;;8.05;4.50;;;;;;;9.79;35.88;100078.72;4487916;31;32131;-74
2022/04/04 11:32:49;;;;;;;15.95;7.37;;;;;;;10.29;34.55;100078.84;4488723;31;33684;-74
2022/04/04 11:35:21;;;;;;;8.98;4.97;;;;;;;10.15;35.08;100078.69;4502263;31;35287;-74
2022/04/04 11:38:07;;;;;;;10.57;5.60;;;;;;;10.47;33.97;100068.19;4488274;31;34584;-74
2022/04/04 11:40:42;;;;;;;11.23;5.00;;;;;;;10.33;33.70;100070.03;4488124;31;32990;-74
2022/04/04 11:43:12;;;;;;;7.62;5.10;;;;;;;9.48;35.56;100070.81;4488294;31;34445;-74